Time;durP1;ratioP1;P1;durP2;ratioP2;P2;SDS_P1;SDS_P2;PMS_P1;PMS_P2;Temp;Humidity;BMP_temperature;BMP_pressure;BME280_temperature;BME280_humidity;BME280_pressure;Samples;Min_cycle;Max_cycle;Signal;HPM_P1;HPM_P2
2021/10/02 00:34:35;;;;;;;;;;;;;;;;;;;;;
2021/10/02 00:44:40;;;;;;;2.33;2.13;;;15.30;99.90;;;;;;6044188;23;20518;-69
2021/10/02 00:47:10;;;;;;;3.30;2.10;;;15.30;99.90;;;;;;6006900;23;20723;-69
2021/10/02 00:49:37;;;;;;;3.30;2.23;;;15.30;99.90;;;;;;6031187;23;20652;-68
2021/10/02 00:52:05;;;;;;;2.43;2.23;;;15.20;99.90;;;;;;6030060;23;20619;-69
2021/10/02 00:54:31;;;;;;;2.33;2.13;;;15.20;99.90;;;;;;6035889;23;20595;-69
2021/10/02 00:56:57;;;;;;;2.93;2.20;;;15.20;99.90;;;;;;6037170;23;21172;-69
2021/10/02 00:59:29;;;;;;;2.40;2.20;;;15.20;99.90;;;;;;6007394;23;20211;-68
2021/10/02 01:02:09;;;;;;;2.63;2.43;;;15.20;99.90;;;;;;6009536;23;20612;-69
2021/10/02 01:04:53;;;;;;;2.77;2.07;;;15.20;99.90;;;;;;6034155;23;21059;-69
2021/10/02 01:07:43;;;;;;;3.30;2.20;;;15.20;99.90;;;;;;6039091;23;20711;-70
2021/10/02 01:10:41;;;;;;;3.40;2.77;;;15.20;99.90;;;;;;6008668;23;20581;-70
2021/10/02 01:13:16;;;;;;;2.83;2.33;;;15.20;99.90;;;;;;6008419;23;20568;-69
2021/10/02 01:15:59;;;;;;;4.07;2.70;;;15.10;99.90;;;;;;6031426;23;20602;-70
2021/10/02 01:18:46;;;;;;;3.67;2.57;;;15.10;99.90;;;;;;6044909;23;21004;-70
2021/10/02 01:21:37;;;;;;;2.40;2.20;;;15.10;99.90;;;;;;6018022;23;20627;-70
2021/10/02 01:24:43;;;;;;;3.47;2.43;;;15.10;99.90;;;;;;6036820;23;21090;-69
2021/10/02 01:27:50;;;;;;;4.10;2.50;;;15.10;99.90;;;;;;6034830;23;20620;-70
2021/10/02 01:30:33;;;;;;;2.70;2.47;;;15.10;99.90;;;;;;6025438;23;20588;-69
2021/10/02 01:33:08;;;;;;;2.97;2.63;;;15.00;99.90;;;;;;6035878;23;20596;-70
2021/10/02 01:35:55;;;;;;;3.37;3.03;;;15.00;99.90;;;;;;6033296;23;20504;-70
2021/10/02 01:49:31;;;;;;;5.17;2.60;;;15.00;99.90;;;;;;6034611;23;20628;-69
2021/10/02 01:52:02;;;;;;;5.73;2.90;;;15.00;99.90;;;;;;6035426;23;21082;-69
2021/10/02 01:54:37;;;;;;;2.93;2.73;;;15.00;99.90;;;;;;6035637;23;20568;-69
2021/10/02 01:57:06;;;;;;;2.80;2.50;;;15.00;99.90;;;;;;6032077;23;20603;-70
2021/10/02 01:59:33;;;;;;;3.40;3.00;;;15.00;99.90;;;;;;6032169;23;21226;-69
2021/10/02 02:02:00;;;;;;;3.50;3.20;;;15.00;99.90;;;;;;6035580;23;20645;-70
2021/10/02 02:04:29;;;;;;;4.43;2.77;;;15.00;99.90;;;;;;6035456;23;20533;-70
2021/10/02 02:06:59;;;;;;;3.30;3.00;;;15.00;99.90;;;;;;6035132;23;20620;-71
2021/10/02 02:09:30;;;;;;;3.67;3.33;;;15.00;99.90;;;;;;6034632;23;20564;-70
2021/10/02 02:11:56;;;;;;;3.93;3.50;;;15.00;99.90;;;;;;6033273;23;20512;-68
2021/10/02 02:14:24;;;;;;;4.03;3.73;;;15.00;99.90;;;;;;6034039;23;21157;-71
2021/10/02 02:16:52;;;;;;;4.30;3.90;;;15.00;99.90;;;;;;6033426;23;20980;-69
2021/10/02 02:19:19;;;;;;;4.90;4.40;;;15.00;99.90;;;;;;6035141;23;20581;-68
2021/10/02 02:21:47;;;;;;;4.00;3.70;;;14.90;99.90;;;;;;6034050;23;21012;-69
2021/10/02 02:24:13;;;;;;;4.43;4.03;;;14.90;99.90;;;;;;6032891;23;20588;-69
2021/10/02 02:26:44;;;;;;;5.23;4.73;;;14.80;99.90;;;;;;6034220;23;20743;-68
2021/10/02 02:29:12;;;;;;;6.33;4.80;;;14.70;99.90;;;;;;6035988;23;20207;-68
2021/10/02 02:31:39;;;;;;;5.07;4.37;;;14.70;99.90;;;;;;6034650;23;21165;-69
2021/10/02 02:34:04;;;;;;;6.20;4.80;;;14.80;99.90;;;;;;6033794;23;20636;-69
2021/10/02 02:36:30;;;;;;;5.70;4.83;;;14.80;99.90;;;;;;6033259;23;21153;-68
2021/10/02 02:38:56;;;;;;;5.73;4.63;;;14.70;99.90;;;;;;6034000;23;20160;-68
2021/10/02 02:41:21;;;;;;;7.37;4.83;;;14.70;99.90;;;;;;6035578;23;20172;-69
2021/10/02 02:43:47;;;;;;;7.37;4.47;;;14.70;99.90;;;;;;6040191;23;20284;-69
2021/10/02 02:46:25;;;;;;;5.43;4.67;;;14.70;99.90;;;;;;6037547;23;20237;-69
2021/10/02 02:49:15;;;;;;;5.30;4.67;;;14.70;99.90;;;;;;6038253;23;20152;-69
2021/10/02 02:52:10;;;;;;;5.67;4.47;;;14.70;99.90;;;;;;6035760;23;20536;-69
2021/10/02 02:54:50;;;;;;;5.77;4.60;;;14.80;99.90;;;;;;6034726;23;20509;-69
2021/10/02 02:57:19;;;;;;;6.20;5.23;;;14.80;99.90;;;;;;6031992;23;20708;-69
2021/10/02 03:00:06;;;;;;;5.77;5.13;;;14.70;99.90;;;;;;6033835;23;20596;-69
2021/10/02 03:02:36;;;;;;;6.10;5.47;;;14.80;99.90;;;;;;6033937;23;21020;-69
2021/10/02 03:05:04;;;;;;;5.10;4.60;;;14.80;99.90;;;;;;6035383;23;20605;-68
2021/10/02 03:07:37;;;;;;;7.97;5.43;;;14.80;99.90;;;;;;6032974;23;21009;-69
2021/10/02 03:10:14;;;;;;;6.67;5.77;;;14.80;99.90;;;;;;6033615;23;20635;-69
2021/10/02 03:12:43;;;;;;;6.43;5.70;;;14.80;99.90;;;;;;6034038;23;20505;-70
2021/10/02 03:15:14;;;;;;;5.50;5.00;;;14.80;99.90;;;;;;6034306;23;20611;-69
2021/10/02 03:17:41;;;;;;;6.20;5.20;;;14.80;99.90;;;;;;6034747;23;20616;-69
2021/10/02 03:20:08;;;;;;;6.50;5.80;;;14.80;99.90;;;;;;6033947;23;20687;-68
2021/10/02 03:22:35;;;;;;;7.47;6.77;;;14.80;99.90;;;;;;6035106;23;20549;-68
2021/10/02 03:25:09;;;;;;;7.20;6.50;;;14.80;99.90;;;;;;6033838;23;20537;-69
2021/10/02 03:27:38;;;;;;;6.80;6.17;;;14.80;99.90;;;;;;6005494;23;20796;-69
2021/10/02 03:30:06;;;;;;;6.67;6.00;;;14.80;99.90;;;;;;6032305;23;20604;-68
2021/10/02 03:32:34;;;;;;;7.27;6.57;;;14.70;99.90;;;;;;6034826;23;20539;-69
2021/10/02 03:35:01;;;;;;;6.60;5.90;;;14.70;99.90;;;;;;6033939;23;20538;-69
2021/10/02 03:37:28;;;;;;;8.50;7.40;;;14.70;99.90;;;;;;6032505;23;21033;-69
2021/10/02 03:39:58;;;;;;;7.50;6.70;;;14.70;99.90;;;;;;6034075;23;20569;-68
2021/10/02 03:42:27;;;;;;;7.37;6.60;;;14.80;99.90;;;;;;6033641;23;20552;-69
2021/10/02 03:44:53;;;;;;;7.43;6.43;;;14.70;99.90;;;;;;6033640;23;21074;-68
2021/10/02 03:47:21;;;;;;;7.60;6.90;;;14.70;99.90;;;;;;6033772;23;20616;-69
2021/10/02 03:49:50;;;;;;;7.20;6.50;;;14.70;99.90;;;;;;6034119;23;20594;-68
2021/10/02 03:52:20;;;;;;;8.17;7.37;;;14.80;99.90;;;;;;6009243;23;20600;-69
2021/10/02 03:54:45;;;;;;;9.37;6.87;;;14.80;99.90;;;;;;6036465;23;20543;-68
2021/10/02 03:57:11;;;;;;;10.40;7.47;;;14.80;99.90;;;;;;6035257;23;20592;-69
2021/10/02 03:59:39;;;;;;;9.43;6.83;;;14.70;99.90;;;;;;6033043;23;20255;-68
2021/10/02 04:02:05;;;;;;;7.70;6.43;;;14.80;99.90;;;;;;6034880;23;20161;-68
2021/10/02 04:04:30;;;;;;;8.80;7.30;;;14.80;99.90;;;;;;6034328;23;21066;-68
2021/10/02 04:06:56;;;;;;;7.43;6.73;;;14.80;99.90;;;;;;6033845;23;20208;-69
2021/10/02 04:09:26;;;;;;;7.77;6.80;;;14.80;99.90;;;;;;6032931;23;20258;-68
2021/10/02 04:11:52;;;;;;;10.07;6.70;;;14.80;99.90;;;;;;6034441;23;20258;-69
2021/10/02 04:14:20;;;;;;;9.13;6.93;;;14.80;99.90;;;;;;6033316;23;20562;-69
2021/10/02 04:16:46;;;;;;;7.97;6.77;;;14.80;99.90;;;;;;6032741;23;20208;-69
2021/10/02 04:19:14;;;;;;;6.93;6.30;;;14.80;99.90;;;;;;6035496;23;20555;-69
2021/10/02 04:21:40;;;;;;;7.70;6.90;;;14.80;99.90;;;;;;6046453;23;20592;-69
2021/10/02 04:24:08;;;;;;;7.60;6.80;;;14.80;99.90;;;;;;6047092;23;20638;-69
2021/10/02 04:26:34;;;;;;;11.37;6.93;;;14.90;99.90;;;;;;6033126;23;20223;-69
2021/10/02 04:29:00;;;;;;;8.20;7.30;;;14.90;99.90;;;;;;6035856;23;20611;-69
2021/10/02 04:31:33;;;;;;;7.10;6.40;;;14.90;99.90;;;;;;6034105;23;20667;-69
2021/10/02 04:33:58;;;;;;;7.93;7.00;;;14.80;99.90;;;;;;6030737;23;20212;-69
2021/10/02 04:36:24;;;;;;;6.77;6.17;;;14.80;99.90;;;;;;6031795;23;20815;-69
2021/10/02 04:38:50;;;;;;;8.70;6.90;;;14.80;99.90;;;;;;6032802;23;20173;-69
2021/10/02 04:41:17;;;;;;;7.07;6.47;;;14.90;99.90;;;;;;6030197;23;20215;-68
2021/10/02 04:43:44;;;;;;;7.33;6.53;;;14.90;99.90;;;;;;6010632;23;20172;-69
2021/10/02 04:46:18;;;;;;;8.63;7.20;;;14.90;99.90;;;;;;6036911;23;20704;-69
2021/10/02 04:48:44;;;;;;;6.93;6.23;;;14.90;99.90;;;;;;6036730;23;20498;-69
2021/10/02 04:51:10;;;;;;;7.10;5.90;;;14.80;99.90;;;;;;6032577;23;20579;-69
2021/10/02 04:53:37;;;;;;;7.40;6.60;;;14.80;99.90;;;;;;6033689;23;20545;-69
2021/10/02 04:56:05;;;;;;;9.97;6.63;;;14.80;99.90;;;;;;6036131;23;21169;-69
2021/10/02 04:58:34;;;;;;;6.83;6.23;;;14.80;99.90;;;;;;6010303;23;20580;-69
2021/10/02 05:01:03;;;;;;;9.27;7.03;;;14.80;99.90;;;;;;6036251;23;20679;-69
2021/10/02 05:03:28;;;;;;;9.40;7.30;;;14.80;99.90;;;;;;6035405;23;20798;-69
2021/10/02 05:05:54;;;;;;;8.90;7.13;;;14.80;99.90;;;;;;6034007;23;20949;-69
2021/10/02 05:08:20;;;;;;;6.93;6.23;;;14.80;99.90;;;;;;6036862;23;20216;-69
2021/10/02 05:10:46;;;;;;;7.03;6.43;;;14.90;99.90;;;;;;6012187;23;20527;-69
2021/10/02 05:13:11;;;;;;;9.10;7.33;;;14.90;99.90;;;;;;6039007;23;20159;-69
2021/10/02 05:15:41;;;;;;;7.67;6.50;;;14.80;99.90;;;;;;6037412;23;20164;-69
2021/10/02 05:18:11;;;;;;;7.53;6.57;;;14.90;99.90;;;;;;6010939;23;20184;-69
2021/10/02 05:20:37;;;;;;;8.17;7.33;;;14.90;99.90;;;;;;6034137;23;20560;-69
2021/10/02 05:23:05;;;;;;;8.13;7.00;;;14.90;99.90;;;;;;6031272;23;20547;-69
2021/10/02 05:25:31;;;;;;;8.90;7.30;;;14.90;99.90;;;;;;6032722;23;20159;-69
2021/10/02 05:27:57;;;;;;;9.20;7.60;;;14.90;99.90;;;;;;6032155;23;20532;-69
2021/10/02 05:30:25;;;;;;;7.70;6.90;;;14.90;99.90;;;;;;6035674;23;20600;-69
2021/10/02 05:32:51;;;;;;;11.20;7.87;;;14.90;99.90;;;;;;6034066;23;20691;-70
2021/10/02 05:35:17;;;;;;;10.63;8.30;;;14.90;99.90;;;;;;6035098;23;20537;-69
2021/10/02 05:37:43;;;;;;;8.50;7.30;;;14.80;99.90;;;;;;6033335;23;20652;-69
2021/10/02 05:40:09;;;;;;;10.33;7.67;;;14.70;99.90;;;;;;6035908;23;20507;-69
2021/10/02 05:42:34;;;;;;;8.90;7.67;;;14.70;99.90;;;;;;6033776;23;20161;-69
2021/10/02 05:45:10;;;;;;;7.93;7.10;;;14.70;99.90;;;;;;6036995;23;20536;-70
2021/10/02 05:47:38;;;;;;;9.30;7.70;;;14.70;99.90;;;;;;6035105;23;20270;-69
2021/10/02 05:50:06;;;;;;;10.33;8.60;;;14.70;99.90;;;;;;6036372;23;20624;-69
2021/10/02 05:52:35;;;;;;;9.23;8.33;;;14.60;99.90;;;;;;6035406;23;20539;-69
2021/10/02 05:55:03;;;;;;;9.90;8.30;;;14.60;99.90;;;;;;6011403;23;20639;-69
2021/10/02 05:57:29;;;;;;;12.93;8.50;;;14.70;99.90;;;;;;6033281;23;20604;-69
2021/10/02 05:59:54;;;;;;;12.17;8.13;;;14.60;99.90;;;;;;6010767;23;20611;-69
2021/10/02 06:02:20;;;;;;;11.40;8.13;;;14.60;99.90;;;;;;6033510;23;21014;-70
2021/10/02 06:04:46;;;;;;;10.20;7.90;;;14.60;99.90;;;;;;6000274;23;20678;-70
2021/10/02 06:07:12;;;;;;;10.27;8.40;;;14.70;99.90;;;;;;6030080;23;20215;-70
2021/10/02 06:09:38;;;;;;;12.30;9.73;;;14.70;99.90;;;;;;6036919;23;20564;-69
2021/10/02 06:12:03;;;;;;;13.20;9.40;;;14.70;99.90;;;;;;6038499;23;20619;-69
2021/10/02 06:14:29;;;;;;;11.10;9.27;;;14.70;99.90;;;;;;6038308;23;20193;-69
2021/10/02 06:16:54;;;;;;;14.10;8.80;;;14.70;99.90;;;;;;6036484;23;20216;-69
2021/10/02 06:19:22;;;;;;;11.70;9.03;;;14.70;99.90;;;;;;6053935;23;20164;-70
2021/10/02 06:21:48;;;;;;;12.13;8.80;;;14.70;99.90;;;;;;6057084;23;20147;-70
2021/10/02 06:24:14;;;;;;;10.80;8.40;;;14.70;99.90;;;;;;6057224;23;20545;-69
2021/10/02 06:26:40;;;;;;;10.50;8.43;;;14.70;99.90;;;;;;6035282;23;20208;-69
2021/10/02 06:29:07;;;;;;;10.90;8.80;;;14.70;99.90;;;;;;6035322;23;20652;-70
2021/10/02 06:31:33;;;;;;;10.03;7.27;;;14.70;99.90;;;;;;6034459;23;20261;-70
2021/10/02 06:33:58;;;;;;;11.20;8.37;;;14.80;99.90;;;;;;6033216;23;20568;-69
2021/10/02 06:36:27;;;;;;;9.00;7.93;;;14.80;99.90;;;;;;6035171;23;20200;-70
2021/10/02 06:38:55;;;;;;;11.47;7.70;;;14.70;99.90;;;;;;6036119;23;20160;-70
2021/10/02 06:41:22;;;;;;;10.43;8.90;;;14.70;99.90;;;;;;6034495;23;20672;-69
2021/10/02 06:43:48;;;;;;;10.90;8.80;;;14.70;99.90;;;;;;6034532;23;20533;-69
2021/10/02 06:46:14;;;;;;;8.33;7.40;;;14.70;99.90;;;;;;6034699;23;20619;-70
2021/10/02 06:48:41;;;;;;;12.10;8.17;;;14.70;99.90;;;;;;6007986;23;20691;-69
2021/10/02 06:51:09;;;;;;;11.23;8.13;;;14.70;99.90;;;;;;6033757;23;20168;-70
2021/10/02 06:53:36;;;;;;;10.33;8.33;;;14.70;99.90;;;;;;6035242;23;20541;-69
2021/10/02 06:56:02;;;;;;;10.40;8.73;;;14.60;99.90;;;;;;6033734;23;20692;-70
2021/10/02 06:58:28;;;;;;;11.07;8.50;;;14.60;99.90;;;;;;6038851;23;20974;-70
2021/10/02 07:00:53;;;;;;;10.83;8.97;;;14.60;99.90;;;;;;6037034;23;20672;-69
2021/10/02 07:03:19;;;;;;;10.10;8.60;;;14.70;99.90;;;;;;6036207;23;20168;-70
2021/10/02 07:05:44;;;;;;;11.30;8.63;;;14.60;99.90;;;;;;6032699;23;20265;-69
2021/10/02 07:08:10;;;;;;;10.43;8.50;;;14.70;99.90;;;;;;6044986;23;20184;-70
2021/10/02 07:10:36;;;;;;;9.53;8.40;;;14.70;99.90;;;;;;6030110;23;20181;-69
2021/10/02 07:13:02;;;;;;;10.83;9.60;;;14.70;99.90;;;;;;6052292;23;20161;-70
2021/10/02 07:15:28;;;;;;;14.03;9.17;;;14.80;99.90;;;;;;6037351;23;20192;-69
2021/10/02 07:17:55;;;;;;;11.73;9.20;;;14.70;99.90;;;;;;6034512;23;21081;-69
2021/10/02 07:20:23;;;;;;;10.77;8.60;;;14.70;99.90;;;;;;6030316;23;20589;-70
2021/10/02 07:22:48;;;;;;;10.13;8.77;;;14.80;99.90;;;;;;6027355;23;20608;-70
2021/10/02 07:25:15;;;;;;;11.93;9.30;;;14.80;99.90;;;;;;6030309;23;20537;-70
2021/10/02 07:27:42;;;;;;;10.80;8.73;;;14.80;99.90;;;;;;6029629;23;20216;-70
2021/10/02 07:30:09;;;;;;;11.63;9.13;;;14.80;99.90;;;;;;6031010;23;20990;-70
2021/10/02 07:32:35;;;;;;;10.40;8.73;;;14.80;99.90;;;;;;6032724;23;20525;-69
2021/10/02 07:35:01;;;;;;;12.50;10.13;;;14.80;99.90;;;;;;6033170;23;20533;-69
2021/10/02 07:37:27;;;;;;;9.67;8.30;;;14.90;99.90;;;;;;6033018;23;20620;-69
2021/10/02 07:39:53;;;;;;;10.23;8.97;;;14.90;99.90;;;;;;6031420;23;20579;-69
2021/10/02 07:42:19;;;;;;;10.63;9.53;;;14.90;99.90;;;;;;6032074;23;20620;-69
2021/10/02 07:44:50;;;;;;;9.63;8.63;;;14.90;99.90;;;;;;6033161;23;20410;-69
2021/10/02 07:47:18;;;;;;;14.23;9.27;;;14.90;99.90;;;;;;6038036;23;20624;-69
2021/10/02 07:49:43;;;;;;;10.00;9.00;;;14.90;99.90;;;;;;6043775;23;20596;-68
2021/10/02 07:52:09;;;;;;;11.10;9.27;;;14.90;99.90;;;;;;6033002;23;20541;-70
2021/10/02 07:54:37;;;;;;;10.03;8.87;;;14.90;99.90;;;;;;6035325;23;20642;-70
2021/10/02 07:57:03;;;;;;;10.20;9.20;;;14.90;99.90;;;;;;6038435;23;20203;-70
2021/10/02 07:59:29;;;;;;;11.20;9.10;;;14.90;99.90;;;;;;6041734;23;20576;-72
2021/10/02 08:01:57;;;;;;;11.37;10.17;;;14.90;99.90;;;;;;6039354;23;20613;-69
2021/10/02 08:04:23;;;;;;;10.33;9.03;;;14.90;99.90;;;;;;6036849;23;20546;-69
2021/10/02 08:06:49;;;;;;;10.70;9.53;;;15.00;99.90;;;;;;6020120;23;20615;-69
2021/10/02 08:09:19;;;;;;;11.23;9.60;;;15.00;99.90;;;;;;6044618;23;20563;-69
2021/10/02 08:11:46;;;;;;;10.07;8.53;;;15.00;99.90;;;;;;6039376;23;20656;-69
2021/10/02 08:14:14;;;;;;;12.43;9.50;;;15.00;99.90;;;;;;6038742;23;20541;-69
2021/10/02 08:16:42;;;;;;;12.80;10.63;;;15.10;99.90;;;;;;6038548;23;20948;-69
2021/10/02 08:19:10;;;;;;;13.10;9.90;;;15.00;99.90;;;;;;6036136;23;20631;-70
2021/10/02 08:21:41;;;;;;;12.47;11.17;;;15.10;99.90;;;;;;6034237;23;20578;-69
2021/10/02 08:24:07;;;;;;;11.13;9.80;;;15.10;99.90;;;;;;6009170;23;20644;-70
2021/10/02 08:26:34;;;;;;;14.13;11.17;;;15.10;99.90;;;;;;6033359;23;20623;-69
2021/10/02 08:29:02;;;;;;;11.50;10.10;;;15.10;99.90;;;;;;6033504;23;21098;-71
2021/10/02 08:31:28;;;;;;;12.33;10.20;;;15.20;99.90;;;;;;6033935;23;20533;-68
2021/10/02 08:33:53;;;;;;;11.83;9.97;;;15.20;99.90;;;;;;6035475;23;20609;-69
2021/10/02 08:36:19;;;;;;;11.23;10.03;;;15.30;99.90;;;;;;6033573;23;20208;-69
2021/10/02 08:38:45;;;;;;;10.43;9.40;;;15.30;99.90;;;;;;6034306;23;20698;-69
2021/10/02 08:41:11;;;;;;;11.87;9.77;;;15.30;99.90;;;;;;6035074;23;20172;-69
2021/10/02 08:43:38;;;;;;;11.73;10.53;;;15.40;99.90;;;;;;6035447;23;20168;-69
2021/10/02 08:46:06;;;;;;;13.37;10.03;;;15.40;99.90;;;;;;6034592;23;20685;-69
2021/10/02 08:48:33;;;;;;;10.33;9.30;;;15.50;99.90;;;;;;6033459;23;21014;-69
2021/10/02 08:51:02;;;;;;;10.27;9.23;;;15.40;99.90;;;;;;6034201;23;20573;-69
2021/10/02 08:53:33;;;;;;;11.90;10.30;;;15.40;99.90;;;;;;6034718;23;20565;-69
2021/10/02 08:56:01;;;;;;;9.67;8.73;;;15.40;99.90;;;;;;6034668;23;20592;-69
2021/10/02 08:58:27;;;;;;;12.80;9.50;;;15.50;99.90;;;;;;6034578;23;20556;-69
2021/10/02 09:00:53;;;;;;;10.50;9.40;;;15.50;99.90;;;;;;6033967;23;20733;-70
2021/10/02 09:03:22;;;;;;;10.30;9.30;;;15.50;99.90;;;;;;6034302;23;20568;-69
2021/10/02 09:05:48;;;;;;;9.37;8.40;;;15.50;99.90;;;;;;6008454;23;20208;-69
2021/10/02 09:08:14;;;;;;;9.77;8.70;;;15.50;99.90;;;;;;6033602;23;20565;-69
2021/10/02 09:10:40;;;;;;;9.80;8.40;;;15.50;99.90;;;;;;6033605;23;20640;-69
2021/10/02 09:13:07;;;;;;;9.47;8.57;;;15.60;99.90;;;;;;6031672;23;21389;-69
2021/10/02 09:15:33;;;;;;;9.30;8.23;;;15.70;99.90;;;;;;6027363;23;20616;-69
2021/10/02 09:17:59;;;;;;;9.07;8.37;;;15.70;99.90;;;;;;6031636;23;20608;-69
2021/10/02 09:20:25;;;;;;;9.20;8.40;;;15.80;99.90;;;;;;6029607;23;20591;-69
2021/10/02 09:22:56;;;;;;;15.43;10.70;;;15.90;99.90;;;;;;6031501;23;21052;-69
2021/10/02 09:25:23;;;;;;;10.90;9.17;;;15.80;99.90;;;;;;6033492;23;20883;-68
2021/10/02 09:28:10;;;;;;;9.57;8.67;;;15.80;99.90;;;;;;6030836;23;20596;-69
2021/10/02 09:30:38;;;;;;;10.10;8.87;;;15.80;99.90;;;;;;6032854;23;20671;-69
2021/10/02 09:33:20;;;;;;;9.33;7.97;;;15.90;99.90;;;;;;6032196;23;20588;-69
2021/10/02 09:35:46;;;;;;;9.20;8.30;;;16.00;99.90;;;;;;6032214;23;20584;-70
2021/10/02 09:38:17;;;;;;;12.80;9.90;;;16.10;99.90;;;;;;6031226;23;20540;-69
2021/10/02 09:40:57;;;;;;;9.50;8.40;;;16.20;99.90;;;;;;6031061;23;20636;-69
2021/10/02 09:43:24;;;;;;;9.30;8.40;;;16.30;99.90;;;;;;6032214;23;20594;-69
2021/10/02 09:45:50;;;;;;;10.83;8.10;;;16.20;99.90;;;;;;6031669;23;20597;-69
2021/10/02 09:48:29;;;;;;;7.97;7.27;;;16.30;99.90;;;;;;6033626;23;20541;-69
2021/10/02 09:51:06;;;;;;;7.70;6.93;;;16.40;99.90;;;;;;6029670;23;20584;-68
2021/10/02 09:53:43;;;;;;;7.70;7.10;;;16.50;99.90;;;;;;6030531;23;21071;-68
2021/10/02 09:56:13;;;;;;;7.90;7.10;;;16.50;99.90;;;;;;6028428;23;20915;-68
2021/10/02 09:58:40;;;;;;;8.30;7.50;;;16.60;99.90;;;;;;6032130;23;20531;-69
2021/10/02 10:01:19;;;;;;;7.80;7.10;;;16.50;99.90;;;;;;6047194;23;20711;-68
2021/10/02 10:03:47;;;;;;;8.13;7.30;;;16.50;99.90;;;;;;6056729;23;21035;-69
2021/10/02 10:06:24;;;;;;;9.33;7.30;;;16.50;99.90;;;;;;6035597;23;20673;-68
2021/10/02 10:09:12;;;;;;;11.33;9.80;;;16.50;99.90;;;;;;6035025;23;20501;-69
2021/10/02 10:11:51;;;;;;;15.03;12.37;;;16.60;99.90;;;;;;6034023;23;20591;-69
2021/10/02 10:14:22;;;;;;;10.10;9.20;;;16.60;99.90;;;;;;6036081;23;20533;-69
2021/10/02 10:16:49;;;;;;;20.33;16.20;;;16.60;99.90;;;;;;6034219;23;20596;-68
2021/10/02 10:19:20;;;;;;;14.47;13.10;;;16.80;99.90;;;;;;6032274;23;20929;-69
2021/10/02 10:22:22;;;;;;;13.80;9.50;;;16.90;99.90;;;;;;6034437;23;20558;-69
2021/10/02 10:25:01;;;;;;;13.70;11.70;;;17.00;99.90;;;;;;6035432;23;20611;-68
2021/10/02 10:27:41;;;;;;;10.97;9.90;;;17.00;99.90;;;;;;6034487;23;20622;-68
2021/10/02 10:30:13;;;;;;;13.90;12.60;;;16.90;99.90;;;;;;6030091;23;20572;-69
2021/10/02 10:32:54;;;;;;;20.30;16.50;;;16.90;99.90;;;;;;6038900;23;20525;-69
2021/10/02 10:35:24;;;;;;;12.40;11.17;;;16.90;99.90;;;;;;6050271;23;20561;-69
2021/10/02 10:37:49;;;;;;;10.70;9.60;;;17.00;99.90;;;;;;6039416;23;21052;-68
2021/10/02 10:40:15;;;;;;;9.60;8.70;;;17.10;99.90;;;;;;6037232;23;20569;-68
2021/10/02 10:42:40;;;;;;;7.20;6.50;;;17.10;99.90;;;;;;6037217;23;20170;-68
2021/10/02 10:45:07;;;;;;;8.20;7.43;;;17.20;99.90;;;;;;6035290;23;20160;-68
2021/10/02 10:47:32;;;;;;;7.40;6.60;;;17.20;99.90;;;;;;6032979;23;20207;-70
2021/10/02 10:49:58;;;;;;;7.10;6.60;;;17.20;99.90;;;;;;6033160;23;20575;-67
2021/10/02 10:52:25;;;;;;;10.83;9.70;;;17.30;99.90;;;;;;6030051;23;20161;-68
2021/10/02 10:54:52;;;;;;;6.73;6.13;;;17.20;99.90;;;;;;6031247;23;20214;-69
2021/10/02 10:57:35;;;;;;;10.60;9.33;;;17.20;99.90;;;;;;6006154;23;20664;-69
2021/10/02 11:00:06;;;;;;;7.93;7.17;;;17.30;99.90;;;;;;6027922;23;21162;-69
2021/10/02 11:03:10;;;;;;;9.60;8.80;;;17.20;99.90;;;;;;6032414;23;20557;-66
2021/10/02 11:05:35;;;;;;;7.07;6.47;;;17.20;99.90;;;;;;5973014;24;20590;-66
2021/10/02 11:08:08;;;;;;;8.17;6.30;;;17.30;99.90;;;;;;6018672;23;20746;-67
2021/10/02 11:10:54;;;;;;;5.87;5.40;;;17.30;99.90;;;;;;6008539;23;20619;-66
2021/10/02 11:13:29;;;;;;;6.37;5.77;;;17.30;99.90;;;;;;6035507;23;20624;-66
2021/10/02 11:15:56;;;;;;;8.43;5.60;;;17.30;99.90;;;;;;6035338;23;20595;-66
2021/10/02 11:18:42;;;;;;;7.97;6.40;;;17.40;99.90;;;;;;6038139;23;20731;-66
2021/10/02 11:21:09;;;;;;;5.43;4.90;;;17.40;99.90;;;;;;6048679;23;20664;-70
2021/10/02 11:24:02;;;;;;;6.40;5.90;;;17.40;99.90;;;;;;6054667;23;20560;-69
2021/10/02 11:26:48;;;;;;;5.70;5.10;;;17.60;99.90;;;;;;6047335;23;20686;-68
2021/10/02 11:29:25;;;;;;;4.87;4.37;;;17.80;99.90;;;;;;6032860;23;20505;-71
2021/10/02 11:32:17;;;;;;;4.73;4.20;;;17.80;99.90;;;;;;6048967;23;20522;-71
2021/10/02 11:35:11;;;;;;;6.00;4.50;;;17.80;99.90;;;;;;6034500;23;21080;-70
2021/10/02 11:38:05;;;;;;;5.27;4.60;;;17.80;99.90;;;;;;6037395;23;21138;-70
2021/10/02 11:47:46;;;;;;;6.03;4.53;;;17.70;99.90;;;;;;6004576;23;21114;-69
2021/10/02 11:50:12;;;;;;;4.87;4.40;;;17.70;99.90;;;;;;6023093;23;21220;-71
2021/10/02 11:52:43;;;;;;;5.10;4.70;;;17.70;99.90;;;;;;6029912;23;20529;-71
2021/10/02 11:55:38;;;;;;;8.03;5.10;;;17.70;99.90;;;;;;6031207;23;20176;-72
2021/10/02 11:58:12;;;;;;;5.10;4.60;;;17.60;99.90;;;;;;6031294;23;20583;-71
2021/10/02 12:00:52;;;;;;;6.00;5.13;;;17.60;99.90;;;;;;6032202;23;21019;-70
2021/10/02 12:03:19;;;;;;;5.40;4.80;;;17.60;99.90;;;;;;6004649;23;20607;-70
2021/10/02 12:05:47;;;;;;;5.10;4.60;;;17.70;99.90;;;;;;6028564;23;21210;-72
2021/10/02 12:08:13;;;;;;;5.37;4.70;;;17.90;99.90;;;;;;6029090;23;20541;-73
2021/10/02 12:11:01;;;;;;;5.27;4.87;;;18.00;99.90;;;;;;6030297;23;20792;-72
2021/10/02 12:13:37;;;;;;;4.70;4.30;;;18.00;99.90;;;;;;6031044;23;20532;-73
2021/10/02 12:16:08;;;;;;;5.43;4.37;;;18.10;99.90;;;;;;6026503;23;20611;-70
2021/10/02 12:19:09;;;;;;;5.77;4.53;;;18.20;99.90;;;;;;6029469;23;20537;-71
2021/10/02 12:21:36;;;;;;;5.00;4.43;;;18.20;99.90;;;;;;6031229;23;20532;-70
2021/10/02 12:24:18;;;;;;;4.63;4.23;;;18.20;99.90;;;;;;6030122;23;20560;-70
2021/10/02 12:26:51;;;;;;;7.87;5.10;;;18.30;99.90;;;;;;6001841;23;21121;-71
2021/10/02 12:29:21;;;;;;;6.33;5.47;;;18.40;99.90;;;;;;6029845;23;20620;-71
2021/10/02 12:31:53;;;;;;;5.83;5.23;;;18.50;99.90;;;;;;6005124;23;20584;-71
2021/10/02 12:34:24;;;;;;;6.27;5.67;;;18.40;99.90;;;;;;6030114;23;20512;-74
2021/10/02 12:36:56;;;;;;;6.90;6.20;;;18.30;99.90;;;;;;6030214;23;20936;-71
2021/10/02 12:39:28;;;;;;;6.87;5.30;;;18.20;99.90;;;;;;6026106;23;21073;-68
2021/10/02 12:41:57;;;;;;;5.60;5.10;;;18.30;99.90;;;;;;6030336;23;20509;-70
2021/10/02 12:44:32;;;;;;;5.60;4.80;;;19.50;99.90;;;;;;6028346;23;20831;-71
2021/10/02 12:46:59;;;;;;;4.40;4.10;;;21.30;99.90;;;;;;6030392;23;20951;-70
2021/10/02 12:49:26;;;;;;;5.10;4.70;;;22.70;99.90;;;;;;6029744;23;20577;-71
2021/10/02 12:51:53;;;;;;;5.23;4.80;;;24.10;99.90;;;;;;6029045;23;20521;-71
2021/10/02 12:54:23;;;;;;;6.53;5.10;;;24.70;99.90;;;;;;6023070;23;20588;-72
2021/10/02 12:57:00;;;;;;;4.90;4.57;;;25.10;99.90;;;;;;6024398;23;20601;-72
2021/10/02 12:59:39;;;;;;;5.00;4.53;;;25.80;99.90;;;;;;6008376;23;21177;-69
2021/10/02 13:02:05;;;;;;;5.27;4.80;;;25.90;99.90;;;;;;6031639;23;20523;-70
2021/10/02 13:04:33;;;;;;;6.50;5.60;;;25.80;99.90;;;;;;6007782;23;20973;-70
2021/10/02 13:06:59;;;;;;;5.83;5.40;;;25.30;99.90;;;;;;6027142;23;20628;-71
2021/10/02 13:09:26;;;;;;;5.50;5.10;;;25.10;99.90;;;;;;6006220;23;20691;-71
2021/10/02 13:11:51;;;;;;;6.10;5.60;;;24.60;99.90;;;;;;6005501;23;20576;-71
2021/10/02 13:14:34;;;;;;;5.60;5.20;;;24.00;99.90;;;;;;6029028;23;20536;-71
2021/10/02 13:17:02;;;;;;;6.03;5.53;;;23.20;99.90;;;;;;6029744;23;20561;-72
2021/10/02 13:19:30;;;;;;;5.47;5.07;;;22.50;99.90;;;;;;6007630;23;20660;-71
2021/10/02 13:22:17;;;;;;;7.07;5.50;;;22.00;99.90;;;;;;6006135;23;20620;-72
2021/10/02 13:25:06;;;;;;;5.60;5.10;;;21.30;99.90;;;;;;6028336;23;20596;-68
2021/10/02 13:27:35;;;;;;;5.60;5.10;;;21.00;99.90;;;;;;6029538;23;20617;-68
2021/10/02 13:30:11;;;;;;;6.07;5.57;;;20.60;99.90;;;;;;6028117;23;20620;-67
2021/10/02 13:32:38;;;;;;;5.47;5.00;;;20.50;99.90;;;;;;6027371;23;20513;-68
2021/10/02 13:35:07;;;;;;;5.60;5.10;;;20.80;99.90;;;;;;6044672;23;20557;-69
2021/10/02 13:37:33;;;;;;;4.80;4.50;;;21.20;99.90;;;;;;6034136;23;20596;-68
2021/10/02 13:40:03;;;;;;;5.07;4.67;;;21.10;99.90;;;;;;6030021;23;20652;-68
2021/10/02 13:42:29;;;;;;;5.60;5.10;;;21.00;99.90;;;;;;6028041;23;20613;-69
2021/10/02 13:44:56;;;;;;;6.00;5.53;;;20.90;99.90;;;;;;6031363;23;20567;-69
2021/10/02 13:47:23;;;;;;;5.30;4.90;;;20.60;99.90;;;;;;6028970;23;20208;-68
2021/10/02 13:49:52;;;;;;;5.37;4.80;;;20.60;99.90;;;;;;6005162;23;20646;-69
2021/10/02 13:52:19;;;;;;;5.30;4.80;;;20.50;99.90;;;;;;6026533;23;20572;-69
2021/10/02 13:54:45;;;;;;;4.80;4.30;;;20.50;99.90;;;;;;6028227;23;20532;-67
2021/10/02 13:57:11;;;;;;;4.27;3.90;;;20.40;99.90;;;;;;6027586;23;20600;-67
2021/10/02 13:59:39;;;;;;;4.70;4.30;;;20.20;99.90;;;;;;6031457;23;20630;-68